EGTEEGFF

Guest
Details From EGTE - Exeter
To EGFF - Cardiff
Flight Number -
Tags generated
Created
Modified
Stats Distance 40 nm / 74 km
Max Altitude 2,800 ft / 853 m
Waypoints 3
Social Downloads 0
Likes 0
Share VATSIM

Download

Looking for another format? Having issues loading an existing format? Contact us
Advertisement - Login to hide

Notes

Basic altitude profile: - Ascent Rate: 300ft/min - Ascent Speed: 112kts - Cruise Altitude: 6500ft - Cruise Speed: 122kts - Descent Rate: 400ft/min - Descent Speed: 112kts Options: - Use NATs: yes - Use PACOTS: yes - Use low airways: yes - Use high airways: no

Route

EGTE EXMOR EGFF

ID Type Via Altitude Latitude Longitude Leg Dist Tot Dist Heading (true) Name
O EGTE APT - 0 ft / 0 m 50.73426˚ -3.41400˚ - 0 nm - Exeter
EXMOR FIX - 2,800 ft / 853 m 51.17861˚ -3.35972˚ 26 nm 26 nm 4° / 4° -
O EGFF APT - 0 ft / 0 m 51.39656˚ -3.34320˚ 13 nm 39 nm 3° / 3° Cardiff

Altitude Profile

Advertisement - Login to hide

EGTE

Details ICAO EGTE (EXT)
Name Exeter
Region United Kingdom
Timezone Europe/London (UTC+0.0)
Stats Elevation 102 ft / 31 m (AMSL)
Location 50.734260° -3.414000°
Runways 1
Magnetic Variation 1.514° W

METAR

EGTE 122020Z 19011KT 9999 -DZ SCT010 SCT045 07/06 Q1006

Decode

TAF

Not found

Departure Runways

ID Width Length Bearing (true) Bearing (mag) Surface Threshold Offset Overrun Length
08 151 ft / 46 m 6,666 ft / 2,032 m 76.09° 77.60° Asphalt 0 ft / 0 m 0 ft / 0 m
26 151 ft / 46 m 6,666 ft / 2,032 m 256.11° 257.62° Asphalt 0 ft / 0 m 0 ft / 0 m

EGFF

Details ICAO EGFF (CWL)
Name Cardiff
Region United Kingdom
Timezone Europe/London (UTC+0.0)
Stats Elevation 220 ft / 67 m (AMSL)
Location 51.396565° -3.343202°
Runways 1
Magnetic Variation 1.579° W

METAR

EGFF 122020Z AUTO 18008KT 9999 -RA OVC017 06/05 Q1005

Decode

TAF

TAF TAF EGFF 121704Z 1218/1318 21010KT 9999 FEW045 TEMPO 1218/1301 23017G27KT 6000 RA BKN008 BECMG 1222/1301 30010KT BECMG 1305/1308 24018G28KT TEMPO 1305/1315 7000 SHRA BKN010 PROB30 TEMPO 1310/1313 24025G40KT +RA BKN008 TEMPO 1316/1318 24020G42KT 7000 SHRA PROB40 TEMPO 1316/1318 4000 +SHRA BKN008 BKN030CB

Decode

Destination Runways

ID Width Length Bearing (true) Bearing (mag) Surface Threshold Offset Overrun Length
12 131 ft / 40 m 7,831 ft / 2,387 m 116.82° 118.40° Asphalt 715 ft / 218 m 0 ft / 0 m
30 131 ft / 40 m 7,831 ft / 2,387 m 296.84° 298.42° Asphalt 594 ft / 181 m 0 ft / 0 m

Approach Navaids

Runway Type Ident Frequency Range Bearing (true) Bearing (mag) Slope Elevation
12 Localiser ICDF 110.70 MHz 18 nm / 33 km 116.85° 118.43° - 220 ft / 67 m (AMSL)
12 Glidescope ICDF 110.70 MHz 10 nm / 19 km 116.83° 118.41° 3.00° 220 ft / 67 m (AMSL)
12 DME ICDF 110.70 MHz 18 nm / 33 km - - - 281 ft / 86 m (AMSL)
30 Localiser ICWA 110.70 MHz 18 nm / 33 km 296.82° 298.40° - 220 ft / 67 m (AMSL)
30 Glidescope ICWA 110.70 MHz 10 nm / 19 km 296.83° 298.41° 3.00° 220 ft / 67 m (AMSL)
30 DME ICWA 110.70 MHz 18 nm / 33 km - - - 220 ft / 67 m (AMSL)

Popular Alternatives